Time;durP1;ratioP1;P1;durP2;ratioP2;P2;SDS_P1;SDS_P2;PMS_P1;PMS_P2;Temp;Humidity;BMP_temperature;BMP_pressure;BME280_temperature;BME280_humidity;BME280_pressure;Samples;Min_cycle;Max_cycle;Signal;HPM_P1;HPM_P2
2023/08/05 00:00:48;;;;;;;0.10;0.10;;;;;;;13.62;100.00;101565.38;5055025;28;20056;-50
2023/08/05 00:03:13;;;;;;;0.10;0.10;;;;;;;13.62;100.00;101562.78;5054490;28;20060;-48
2023/08/05 00:05:39;;;;;;;0.10;0.10;;;;;;;13.63;100.00;101556.78;5054700;28;20108;-50
2023/08/05 00:08:05;;;;;;;0.15;0.15;;;;;;;13.61;100.00;101553.28;5055133;28;20025;-51
2023/08/05 00:10:30;;;;;;;0.10;0.10;;;;;;;13.64;100.00;101553.34;5054174;28;20029;-50
2023/08/05 00:12:56;;;;;;;0.10;0.10;;;;;;;13.67;100.00;101553.44;5054576;28;20111;-50
2023/08/05 00:15:21;;;;;;;0.10;0.10;;;;;;;13.65;100.00;101555.13;5054489;28;20024;-50
2023/08/05 00:17:47;;;;;;;0.10;0.10;;;;;;;13.70;100.00;101547.44;5053385;28;20021;-49
2023/08/05 00:20:12;;;;;;;0.10;0.10;;;;;;;13.66;100.00;101542.19;5055082;28;20036;-51
2023/08/05 00:22:37;;;;;;;0.10;0.10;;;;;;;13.63;100.00;101542.13;5053894;28;20032;-49
2023/08/05 00:25:03;;;;;;;0.15;0.15;;;;;;;13.61;100.00;101540.31;5054503;28;20101;-50
2023/08/05 00:27:29;;;;;;;0.10;0.10;;;;;;;13.60;100.00;101549.78;5054149;28;20036;-49
2023/08/05 00:29:54;;;;;;;0.10;0.10;;;;;;;13.63;100.00;101544.72;5054329;28;20100;-50
2023/08/05 00:32:19;;;;;;;0.10;0.10;;;;;;;13.65;100.00;101545.63;5054237;28;20128;-50
2023/08/05 00:34:45;;;;;;;0.20;0.20;;;;;;;13.66;100.00;101542.19;5054299;28;20025;-48
2023/08/05 00:37:10;;;;;;;0.17;0.17;;;;;;;13.63;100.00;101536.94;5053994;28;20388;-51
2023/08/05 00:39:35;;;;;;;0.20;0.20;;;;;;;13.63;100.00;101533.47;5053963;28;20029;-49
2023/08/05 00:42:01;;;;;;;0.10;0.10;;;;;;;13.65;100.00;101531.81;5054219;28;20025;-49
2023/08/05 00:44:26;;;;;;;0.10;0.10;;;;;;;13.60;100.00;101530.78;5053500;28;20037;-50
2023/08/05 00:46:52;;;;;;;0.10;0.10;;;;;;;13.58;100.00;101537.63;5054149;28;20025;-49
2023/08/05 00:49:18;;;;;;;0.10;0.10;;;;;;;13.50;100.00;101534.81;5054273;28;20583;-48
2023/08/05 00:51:43;;;;;;;0.10;0.10;;;;;;;13.51;100.00;101528.81;5053384;28;20032;-50
2023/08/05 00:54:09;;;;;;;0.10;0.10;;;;;;;13.34;100.00;101516.22;5053918;28;20021;-50
2023/08/05 00:56:35;;;;;;;0.10;0.10;;;;;;;13.35;100.00;101514.53;5053670;28;20021;-50
2023/08/05 00:59:01;;;;;;;0.20;0.20;;;;;;;13.29;100.00;101504.84;5053651;28;20044;-50
2023/08/05 01:01:26;;;;;;;0.10;0.10;;;;;;;13.22;100.00;101507.22;5053459;28;20033;-49
2023/08/05 01:03:52;;;;;;;0.20;0.20;;;;;;;13.20;100.00;101509.78;5054024;28;20040;-49
2023/08/05 01:06:19;;;;;;;0.10;0.10;;;;;;;13.12;100.00;101501.78;5053466;28;20040;-49
2023/08/05 01:08:44;;;;;;;0.10;0.10;;;;;;;13.18;100.00;101501.97;5053391;28;20507;-50
2023/08/05 01:11:11;;;;;;;0.10;0.10;;;;;;;13.09;100.00;101500.81;5053689;28;20028;-50
2023/08/05 01:13:37;;;;;;;0.10;0.10;;;;;;;12.99;100.00;101499.66;5052859;28;20049;-49
2023/08/05 01:16:02;;;;;;;0.10;0.10;;;;;;;12.99;100.00;101491.91;5053617;28;20025;-50
2023/08/05 01:18:29;;;;;;;0.10;0.10;;;;;;;12.97;100.00;101493.56;5053339;28;20078;-50
2023/08/05 01:20:55;;;;;;;0.20;0.20;;;;;;;12.96;100.00;101490.09;5053275;28;20059;-50
2023/08/05 01:23:34;;;;;;;0.10;0.10;;;;;;;12.81;100.00;101487.91;5053546;28;20056;-49
2023/08/05 01:26:01;;;;;;;0.10;0.10;;;;;;;12.83;100.00;101488.84;5053249;28;20029;-50
2023/08/05 01:28:26;;;;;;;0.10;0.10;;;;;;;12.76;100.00;101492.06;5052820;28;20037;-48
2023/08/05 01:30:54;;;;;;;0.10;0.10;;;;;;;12.81;100.00;101492.22;5053601;28;20039;-50
2023/08/05 01:33:22;;;;;;;0.10;0.10;;;;;;;12.78;100.00;101490.44;5052889;28;20025;-50
2023/08/05 01:35:48;;;;;;;0.10;0.10;;;;;;;12.74;100.00;101493.72;5052995;28;20067;-49
2023/08/05 01:38:14;;;;;;;0.10;0.10;;;;;;;12.70;100.00;101497.06;5053226;28;20099;-50
2023/08/05 01:40:39;;;;;;;0.13;0.13;;;;;;;12.67;100.00;101494.38;5052293;28;20121;-51
2023/08/05 01:43:04;;;;;;;0.10;0.10;;;;;;;12.68;100.00;101493.56;5053011;28;20067;-49
2023/08/05 01:45:30;;;;;;;0.10;0.10;;;;;;;12.70;100.00;101491.88;5052694;28;20084;-48
2023/08/05 01:47:55;;;;;;;0.10;0.10;;;;;;;12.70;100.00;101491.88;5052665;28;20021;-50
2023/08/05 01:50:20;;;;;;;0.10;0.10;;;;;;;12.75;100.00;101495.47;5052894;28;20032;-50
2023/08/05 01:52:45;;;;;;;0.10;0.10;;;;;;;12.77;100.00;101495.53;5052759;28;20051;-50
2023/08/05 01:55:11;;;;;;;0.20;0.20;;;;;;;12.75;100.00;101492.91;5052595;28;20104;-50
2023/08/05 01:57:36;;;;;;;0.10;0.10;;;;;;;12.77;100.00;101493.84;5052648;28;20025;-49
2023/08/05 02:00:03;;;;;;;0.10;0.10;;;;;;;12.78;100.00;101487.84;5053098;28;20020;-49
2023/08/05 02:02:28;;;;;;;0.10;0.10;;;;;;;12.83;100.00;101478.50;5052073;28;20029;-49
2023/08/05 02:04:53;;;;;;;0.20;0.20;;;;;;;12.82;100.00;101484.50;5052650;28;20496;-50
2023/08/05 02:07:19;;;;;;;0.10;0.10;;;;;;;12.82;100.00;101481.03;5053118;28;20346;-50
2023/08/05 02:09:44;;;;;;;0.10;0.10;;;;;;;12.84;100.00;101480.25;5052043;28;20381;-51
2023/08/05 02:12:10;;;;;;;0.10;0.10;;;;;;;12.83;100.00;101483.69;5052789;28;20028;-49
2023/08/05 02:14:35;;;;;;;0.10;0.10;;;;;;;12.92;100.00;101483.06;5052674;28;20163;-49
2023/08/05 02:17:00;;;;;;;0.10;0.10;;;;;;;12.96;100.00;101482.34;5052128;28;20111;-51
2023/08/05 02:19:26;;;;;;;0.20;0.20;;;;;;;12.98;100.00;101484.97;5052544;28;20495;-50
2023/08/05 02:21:51;;;;;;;0.20;0.20;;;;;;;13.00;100.00;101481.59;5052169;28;20032;-50
2023/08/05 02:24:16;;;;;;;0.15;0.15;;;;;;;13.02;100.00;101479.06;5052323;28;20025;-50
2023/08/05 02:26:42;;;;;;;0.10;0.10;;;;;;;13.03;100.00;101483.41;5052537;28;20040;-50
2023/08/05 02:29:07;;;;;;;0.10;0.10;;;;;;;13.01;100.00;101483.38;5052287;28;20118;-51
2023/08/05 02:31:33;;;;;;;0.10;0.10;;;;;;;13.03;100.00;101480.81;5051935;28;20025;-50
2023/08/05 02:33:58;;;;;;;0.10;0.10;;;;;;;13.01;100.00;101478.19;5052644;28;20027;-50
2023/08/05 02:36:23;;;;;;;0.20;0.20;;;;;;;12.98;100.00;101470.31;5051836;28;20545;-50
2023/08/05 02:38:49;;;;;;;0.10;0.10;;;;;;;12.97;100.00;101470.28;5052333;28;20532;-51
2023/08/05 02:41:14;;;;;;;0.10;0.10;;;;;;;12.95;100.00;101467.66;5056150;28;20017;-49
2023/08/05 02:43:39;;;;;;;0.15;0.15;;;;;;;12.90;100.00;101463.16;5055868;28;20082;-47
2023/08/05 02:46:05;;;;;;;0.10;0.10;;;;;;;12.88;100.00;101459.66;5056106;28;20045;-50
2023/08/05 02:48:30;;;;;;;0.20;0.20;;;;;;;12.87;100.00;101463.94;5056288;28;20465;-50
2023/08/05 02:50:56;;;;;;;0.10;0.10;;;;;;;12.80;100.00;101465.47;5055814;28;20021;-50
2023/08/05 02:53:22;;;;;;;0.10;0.10;;;;;;;12.80;100.00;101457.69;5056132;28;20027;-51
2023/08/05 02:55:47;;;;;;;0.10;0.10;;;;;;;12.71;100.00;101467.78;5056624;28;20095;-51
2023/08/05 02:58:14;;;;;;;0.10;0.10;;;;;;;12.65;100.00;101467.59;5055901;28;20064;-49
2023/08/05 03:00:40;;;;;;;0.10;0.10;;;;;;;12.65;100.00;101463.31;5055775;28;20075;-49
2023/08/05 03:03:08;;;;;;;0.20;0.20;;;;;;;12.52;100.00;101463.72;5056193;28;20029;-50
2023/08/05 03:05:33;;;;;;;0.13;0.13;;;;;;;12.58;100.00;101460.47;5055369;28;20049;-50
2023/08/05 03:07:58;;;;;;;0.10;0.10;;;;;;;12.51;100.00;101455.13;5055933;28;20064;-50
2023/08/05 03:10:24;;;;;;;0.20;0.20;;;;;;;12.54;100.00;101456.03;5055960;28;20036;-50
2023/08/05 03:12:49;;;;;;;0.10;0.10;;;;;;;12.48;100.00;101438.63;5055712;28;20049;-49
2023/08/05 03:15:14;;;;;;;0.20;0.20;;;;;;;12.47;100.00;101435.16;5055705;28;20105;-49
2023/08/05 03:17:40;;;;;;;0.10;0.10;;;;;;;12.46;100.00;101436.00;5055577;28;20063;-50
2023/08/05 03:20:21;;;;;;;0.10;0.10;;;;;;;12.39;100.00;101443.50;5055379;28;20469;-50
2023/08/05 03:22:46;;;;;;;0.10;0.10;;;;;;;12.41;100.00;101436.66;5055720;28;20041;-51
2023/08/05 03:25:11;;;;;;;0.10;0.10;;;;;;;12.41;100.00;101431.50;5055550;28;20035;-48
2023/08/05 03:27:37;;;;;;;0.08;0.08;;;;;;;12.37;100.00;101427.97;5055323;28;20104;-50
2023/08/05 03:30:02;;;;;;;0.20;0.20;;;;;;;12.33;100.00;101429.56;5055951;28;20029;-47
2023/08/05 03:32:28;;;;;;;0.10;0.10;;;;;;;12.33;100.00;101428.66;5054837;28;20132;-50
2023/08/05 03:34:53;;;;;;;0.20;0.20;;;;;;;12.33;100.00;101426.97;5055418;28;20370;-50
2023/08/05 03:37:18;;;;;;;0.10;0.10;;;;;;;12.33;100.00;101418.31;5055518;28;20532;-50
2023/08/05 03:39:43;;;;;;;0.10;0.10;;;;;;;12.31;100.00;101427.75;5054788;28;20033;-50
2023/08/05 03:42:09;;;;;;;0.13;0.13;;;;;;;12.28;100.00;101422.50;5055245;28;20021;-50
2023/08/05 03:44:34;;;;;;;0.10;0.10;;;;;;;12.30;100.00;101419.13;5054996;28;20048;-50
2023/08/05 03:46:59;;;;;;;0.10;0.10;;;;;;;12.28;100.00;101409.56;5054757;28;20071;-50
2023/08/05 03:49:25;;;;;;;0.20;0.20;;;;;;;12.25;100.00;101404.28;5054884;28;20021;-50
2023/08/05 03:51:50;;;;;;;0.15;0.15;;;;;;;12.29;100.00;101400.97;5055388;28;20040;-50
2023/08/05 03:54:15;;;;;;;0.10;0.10;;;;;;;12.22;100.00;101391.28;5054454;28;20350;-50
2023/08/05 03:56:41;;;;;;;0.10;0.10;;;;;;;12.18;100.00;101388.59;5054625;28;20025;-51
2023/08/05 03:59:06;;;;;;;0.20;0.20;;;;;;;12.20;100.00;101388.66;5055116;28;20111;-50
2023/08/05 04:01:34;;;;;;;0.10;0.10;;;;;;;12.23;100.00;101390.47;5054195;28;20032;-49
2023/08/05 04:03:59;;;;;;;0.10;0.10;;;;;;;12.24;100.00;101387.91;5054725;28;20024;-50
2023/08/05 04:06:25;;;;;;;0.10;0.10;;;;;;;12.23;100.00;101386.16;5054668;28;20532;-50
2023/08/05 04:08:53;;;;;;;0.10;0.10;;;;;;;12.23;100.00;101380.13;5054550;28;20029;-50
2023/08/05 04:11:19;;;;;;;0.10;0.10;;;;;;;12.25;100.00;101378.44;5054866;28;20017;-48
2023/08/05 04:13:45;;;;;;;0.15;0.15;;;;;;;12.26;100.00;101380.22;5054759;28;20079;-45
2023/08/05 04:16:11;;;;;;;0.10;0.10;;;;;;;12.24;100.00;101380.16;5054387;28;20021;-45
2023/08/05 04:18:38;;;;;;;0.10;0.10;;;;;;;12.28;100.00;101389.75;5054285;28;20067;-49
2023/08/05 04:21:04;;;;;;;0.10;0.10;;;;;;;12.27;100.00;101392.31;5054853;28;20029;-49
2023/08/05 04:23:32;;;;;;;0.10;0.10;;;;;;;12.25;100.00;101386.19;5053900;28;20057;-50
2023/08/05 04:25:59;;;;;;;0.10;0.10;;;;;;;12.27;100.00;101369.03;5054832;28;20021;-50
2023/08/05 04:28:25;;;;;;;0.20;0.20;;;;;;;12.26;100.00;101356.94;5054059;28;20033;-46
2023/08/05 04:30:52;;;;;;;0.15;0.15;;;;;;;12.27;100.00;101361.28;5054542;28;20492;-50
2023/08/05 04:33:17;;;;;;;0.10;0.10;;;;;;;12.27;100.00;101363.88;5054450;28;20047;-46
2023/08/05 04:35:49;;;;;;;0.10;0.10;;;;;;;12.27;100.00;101351.81;5053523;28;20376;-46
2023/08/05 04:38:16;;;;;;;0.20;0.20;;;;;;;12.27;100.00;101341.47;5054403;28;20036;-47
2023/08/05 04:40:41;;;;;;;0.20;0.20;;;;;;;12.31;100.00;101337.28;5054257;28;20021;-45
2023/08/05 04:43:07;;;;;;;0.10;0.10;;;;;;;12.31;100.00;101342.47;5053777;28;20496;-49
2023/08/05 04:45:32;;;;;;;0.13;0.13;;;;;;;12.34;100.00;101332.19;5053472;28;20053;-50
2023/08/05 04:47:57;;;;;;;0.30;0.20;;;;;;;12.35;100.00;101339.13;5054380;28;20021;-50
2023/08/05 04:50:23;;;;;;;0.20;0.20;;;;;;;12.36;100.00;101330.56;5053600;28;20033;-45
2023/08/05 04:52:48;;;;;;;0.10;0.10;;;;;;;12.38;100.00;101338.34;5054101;28;20028;-50
2023/08/05 04:55:17;;;;;;;0.10;0.10;;;;;;;12.36;100.00;101338.31;5054041;28;20029;-50
2023/08/05 04:57:43;;;;;;;0.10;0.10;;;;;;;12.38;100.00;101334.03;5053169;28;20799;-49
2023/08/05 05:00:09;;;;;;;0.10;0.10;;;;;;;12.38;100.00;101333.19;5053888;28;20108;-50
2023/08/05 05:02:34;;;;;;;0.20;0.20;;;;;;;12.41;100.00;101333.25;5052806;28;20112;-47
2023/08/05 05:05:02;;;;;;;0.20;0.20;;;;;;;12.43;100.00;101332.47;5053353;28;20021;-50
2023/08/05 05:07:27;;;;;;;0.20;0.20;;;;;;;12.45;100.00;101337.72;5053463;28;20033;-48
2023/08/05 05:09:53;;;;;;;0.10;0.10;;;;;;;12.46;100.00;101342.03;5054075;28;20350;-48
2023/08/05 05:12:18;;;;;;;0.20;0.20;;;;;;;12.47;100.00;101341.19;5053271;28;20465;-51
2023/08/05 05:14:45;;;;;;;0.10;0.10;;;;;;;12.49;100.00;101345.59;5053187;28;20041;-50
2023/08/05 05:17:14;;;;;;;0.20;0.20;;;;;;;12.47;100.00;101329.16;5053566;28;20025;-49
2023/08/05 05:19:39;;;;;;;0.13;0.13;;;;;;;12.49;100.00;101332.66;5052473;28;20445;-50
2023/08/05 05:22:04;;;;;;;0.10;0.10;;;;;;;12.52;100.00;101322.44;5053580;28;20032;-45
2023/08/05 05:24:30;;;;;;;0.10;0.10;;;;;;;12.54;100.00;101330.22;5052824;28;20385;-48
2023/08/05 05:26:57;;;;;;;0.20;0.20;;;;;;;12.57;100.00;101330.31;5052603;28;20461;-50
2023/08/05 05:29:22;;;;;;;0.20;0.20;;;;;;;12.59;100.00;101333.81;5053207;28;20051;-45
2023/08/05 05:31:48;;;;;;;0.10;0.10;;;;;;;12.63;100.00;101339.97;5052726;28;20347;-49
2023/08/05 05:34:13;;;;;;;0.20;0.20;;;;;;;12.64;100.00;101323.59;5053303;28;20021;-49
2023/08/05 05:36:38;;;;;;;0.10;0.10;;;;;;;12.66;100.00;101325.38;5053095;28;20029;-51
2023/08/05 05:39:04;;;;;;;0.17;0.17;;;;;;;12.70;100.00;101320.31;5052643;28;20449;-45
2023/08/05 05:41:29;;;;;;;0.10;0.10;;;;;;;12.77;100.00;101317.94;5052581;28;20051;-50
2023/08/05 05:43:56;;;;;;;0.20;0.20;;;;;;;12.82;100.00;101315.47;5052952;28;20028;-44
2023/08/05 05:46:21;;;;;;;0.13;0.13;;;;;;;12.84;100.00;101321.56;5052515;28;20104;-50
2023/08/05 05:48:46;;;;;;;0.20;0.20;;;;;;;12.97;100.00;101317.63;5052751;28;20112;-49
2023/08/05 05:51:12;;;;;;;0.20;0.20;;;;;;;13.00;100.00;101317.69;5053213;28;20021;-49
2023/08/05 05:53:37;;;;;;;0.10;0.10;;;;;;;13.04;100.00;101316.97;5052341;28;20066;-47
2023/08/05 05:56:03;;;;;;;0.10;0.10;;;;;;;13.06;100.00;101317.88;5052617;28;20075;-50
2023/08/05 05:58:28;;;;;;;0.10;0.10;;;;;;;13.12;100.00;101314.59;5052507;28;20021;-49
2023/08/05 06:00:56;;;;;;;0.20;0.20;;;;;;;13.25;100.00;101310.59;5052267;28;20032;-49
2023/08/05 06:03:22;;;;;;;0.10;0.10;;;;;;;13.31;100.00;101310.75;5052797;28;20029;-47
2023/08/05 06:05:50;;;;;;;0.10;0.10;;;;;;;13.41;100.00;101307.59;5052677;28;20043;-47
2023/08/05 06:08:15;;;;;;;0.10;0.10;;;;;;;13.48;100.00;101316.41;5052387;28;20167;-47
2023/08/05 06:10:40;;;;;;;0.10;0.10;;;;;;;13.57;100.00;101318.31;5052241;28;20435;-51
2023/08/05 06:13:06;;;;;;;0.10;0.10;;;;;;;13.64;100.00;101309.88;5052788;28;20031;-49
2023/08/05 06:15:31;;;;;;;0.10;0.10;;;;;;;13.67;100.00;101299.59;5051004;28;20036;-47
2023/08/05 06:17:56;;;;;;;0.10;0.10;;;;;;;13.71;100.00;101304.03;5052718;28;20032;-50
2023/08/05 06:20:22;;;;;;;0.10;0.10;;;;;;;13.82;100.00;101310.31;5052914;28;20029;-49
2023/08/05 06:22:47;;;;;;;0.13;0.13;;;;;;;13.89;100.00;101311.34;5051835;28;20025;-46
2023/08/05 06:25:12;;;;;;;0.10;0.10;;;;;;;14.01;100.00;101305.56;5052763;28;20485;-45
2023/08/05 06:27:38;;;;;;;0.10;0.10;;;;;;;14.06;100.00;101303.97;5052314;28;20537;-49
2023/08/05 06:30:04;;;;;;;0.10;0.10;;;;;;;14.19;100.00;101299.03;5051652;28;20025;-51
2023/08/05 06:32:29;;;;;;;0.10;0.10;;;;;;;14.26;100.00;101294.00;5052294;28;20052;-46
2023/08/05 06:34:55;;;;;;;0.10;0.10;;;;;;;14.36;100.00;101296.78;5052691;28;20493;-48
2023/08/05 06:37:21;;;;;;;0.10;0.10;;;;;;;14.48;100.00;101291.88;5051690;28;20055;-50
2023/08/05 06:39:47;;;;;;;0.10;0.10;;;;;;;14.56;100.00;101290.31;5052382;28;20112;-49
2023/08/05 06:42:12;;;;;;;0.10;0.10;;;;;;;14.60;100.00;101301.63;5051802;28;20196;-46
2023/08/05 06:44:37;;;;;;;0.10;0.10;;;;;;;14.74;100.00;101304.53;5051668;28;20056;-47
2023/08/05 06:47:04;;;;;;;0.10;0.10;;;;;;;14.69;100.00;101304.44;5052624;28;20033;-50
2023/08/05 06:49:29;;;;;;;0.20;0.20;;;;;;;14.76;100.00;101295.94;5051746;28;20033;-50
2023/08/05 06:51:54;;;;;;;0.10;0.10;;;;;;;14.78;100.00;101302.03;5052355;28;20500;-50
2023/08/05 06:54:21;;;;;;;0.10;0.10;;;;;;;14.94;100.00;101291.97;5052418;28;20029;-50
2023/08/05 06:56:46;;;;;;;0.10;0.10;;;;;;;15.01;100.00;101286.03;5051654;28;20029;-49
2023/08/05 06:59:12;;;;;;;0.10;0.10;;;;;;;15.01;100.00;101282.56;5051990;28;20032;-50
2023/08/05 07:01:37;;;;;;;0.10;0.10;;;;;;;15.06;100.00;101283.53;5052117;28;20028;-48
2023/08/05 07:04:03;;;;;;;0.10;0.10;;;;;;;15.10;100.00;101277.53;5051885;28;20032;-50
2023/08/05 07:06:28;;;;;;;0.10;0.10;;;;;;;15.13;100.00;101272.38;5051792;28;20040;-49
2023/08/05 07:08:53;;;;;;;0.10;0.10;;;;;;;15.24;100.00;101267.38;5052535;28;20033;-50
2023/08/05 07:11:18;;;;;;;0.10;0.10;;;;;;;15.29;100.00;101263.16;5051679;28;20031;-51
2023/08/05 07:13:44;;;;;;;0.10;0.10;;;;;;;15.34;100.00;101266.69;5051549;28;20099;-50
2023/08/05 07:16:09;;;;;;;0.10;0.10;;;;;;;15.51;100.00;101258.31;5052382;28;20025;-51
2023/08/05 07:18:35;;;;;;;0.10;0.10;;;;;;;15.55;100.00;101260.09;5051346;28;20461;-50
2023/08/05 07:21:00;;;;;;;0.10;0.10;;;;;;;15.65;100.00;101262.00;5051911;28;20021;-47
2023/08/05 07:23:25;;;;;;;0.10;0.10;;;;;;;15.77;100.00;101256.97;5051767;28;20052;-50
2023/08/05 07:25:51;;;;;;;0.10;0.10;;;;;;;15.92;100.00;101260.66;5052194;28;20067;-51
2023/08/05 07:28:16;;;;;;;0.10;0.10;;;;;;;16.00;100.00;101259.06;5055661;28;20051;-51
2023/08/05 07:30:42;;;;;;;0.10;0.10;;;;;;;16.11;100.00;101256.59;5055290;28;20112;-49
2023/08/05 07:33:09;;;;;;;0.10;0.10;;;;;;;16.13;100.00;101260.97;5054709;28;20083;-49
2023/08/05 07:35:35;;;;;;;0.10;0.10;;;;;;;16.25;100.00;101272.38;5055424;28;20044;-51
2023/08/05 07:38:04;;;;;;;0.05;0.05;;;;;;;16.29;100.00;101261.16;5055716;28;20075;-50
2023/08/05 07:40:30;;;;;;;0.00;0.00;;;;;;;16.38;100.00;101261.28;5054534;28;20025;-51
2023/08/05 07:42:56;;;;;;;0.10;0.10;;;;;;;16.40;100.00;101249.16;5055421;28;20079;-51
2023/08/05 07:45:21;;;;;;;0.10;0.10;;;;;;;16.52;100.00;101258.84;5054699;28;20060;-50
2023/08/05 07:47:47;;;;;;;0.00;0.00;;;;;;;16.58;100.00;101255.47;5055384;28;20025;-50
2023/08/05 07:50:21;;;;;;;0.08;0.08;;;;;;;16.72;100.00;101253.88;5055427;28;20028;-52
2023/08/05 07:52:46;;;;;;;0.00;0.00;;;;;;;16.82;100.00;101246.16;5054594;28;20036;-51
2023/08/05 07:55:12;;;;;;;0.03;0.03;;;;;;;16.95;100.00;101243.72;5055116;28;20465;-51
2023/08/05 07:57:40;;;;;;;0.03;0.03;;;;;;;16.93;100.00;101239.38;5055299;28;20472;-49
2023/08/05 08:00:06;;;;;;;;;;;;;;;17.10;100.00;101237.75;5055287;28;20106;-47
2023/08/05 08:02:32;;;;;;;0.10;0.10;;;;;;;16.82;100.00;101220.13;5054703;28;19913;-50
2023/08/05 08:04:58;;;;;;;0.10;0.10;;;;;;;16.75;100.00;101217.44;5055267;28;20021;-51
2023/08/05 08:07:24;;;;;;;0.10;0.10;;;;;;;16.78;100.00;101212.28;5054344;28;20024;-51
2023/08/05 08:09:50;;;;;;;0.03;0.03;;;;;;;16.92;100.00;101211.56;5054668;28;20082;-50
2023/08/05 08:12:15;;;;;;;0.10;0.10;;;;;;;17.07;100.00;101211.72;5055091;28;20028;-48
2023/08/05 08:14:40;;;;;;;0.10;0.10;;;;;;;17.34;100.00;101212.81;5054058;28;20021;-51
2023/08/05 08:17:06;;;;;;;0.10;0.10;;;;;;;17.36;100.00;101213.66;5054790;28;20037;-51
2023/08/05 08:19:31;;;;;;;0.00;0.00;;;;;;;17.43;100.00;101214.59;5054581;28;20035;-50
2023/08/05 08:21:56;;;;;;;0.00;0.00;;;;;;;17.56;100.00;101202.53;5053999;28;20047;-50
2023/08/05 08:24:22;;;;;;;0.10;0.10;;;;;;;17.67;100.00;101200.84;5054568;28;20021;-48
2023/08/05 08:26:47;;;;;;;0.10;0.10;;;;;;;17.72;100.00;101196.53;5054616;28;20068;-48
2023/08/05 08:29:12;;;;;;;0.10;0.10;;;;;;;17.80;100.00;101187.88;5054108;28;20033;-51
2023/08/05 08:31:38;;;;;;;0.00;0.00;;;;;;;17.74;100.00;101187.00;5054489;28;20024;-50
2023/08/05 08:34:03;;;;;;;0.10;0.10;;;;;;;17.83;100.00;101187.88;5054828;28;20078;-50
2023/08/05 08:36:29;;;;;;;0.00;0.00;;;;;;;17.81;100.00;101190.50;5053682;28;20021;-52
2023/08/05 08:38:54;;;;;;;0.10;0.10;;;;;;;17.96;100.00;101181.91;5053632;28;20070;-49
2023/08/05 08:41:19;;;;;;;0.00;0.00;;;;;;;18.13;100.00;101181.97;5054271;28;20465;-50
2023/08/05 08:43:47;;;;;;;0.00;0.00;;;;;;;18.32;100.00;101175.09;5053384;28;20094;-51
2023/08/05 08:46:14;;;;;;;0.00;0.00;;;;;;;18.46;98.95;101175.09;5054346;28;20067;-50
2023/08/05 08:48:42;;;;;;;0.10;0.10;;;;;;;18.46;93.54;101169.03;5053605;28;20018;-51
2023/08/05 08:51:09;;;;;;;0.00;0.00;;;;;;;18.27;93.70;101159.41;5054103;28;20082;-51
2023/08/05 08:53:34;;;;;;;0.00;0.00;;;;;;;18.33;92.55;101157.69;5053955;28;20052;-50
2023/08/05 08:56:01;;;;;;;0.00;0.00;;;;;;;18.53;92.78;101157.75;5053557;28;20083;-51
2023/08/05 08:58:26;;;;;;;0.03;0.03;;;;;;;18.68;88.72;101147.31;5053802;28;20098;-51
2023/08/05 09:00:52;;;;;;;0.00;0.00;;;;;;;19.10;93.91;101141.25;5054325;28;20473;-51
2023/08/05 09:03:18;;;;;;;0.00;0.00;;;;;;;19.29;86.94;101153.41;5053559;28;20433;-50
2023/08/05 09:05:49;;;;;;;0.00;0.00;;;;;;;19.38;84.62;101157.72;5053583;28;20053;-46
2023/08/05 09:08:15;;;;;;;0.00;0.00;;;;;;;19.28;83.31;101149.06;5053776;28;20096;-49
2023/08/05 09:10:42;;;;;;;0.00;0.00;;;;;;;19.52;86.66;101142.91;5052821;28;20040;-48
2023/08/05 09:13:08;;;;;;;0.00;0.00;;;;;;;19.28;83.01;101136.00;5053483;28;20477;-48
2023/08/05 09:15:36;;;;;;;0.00;0.00;;;;;;;19.14;86.20;101135.16;5053361;28;20075;-52
2023/08/05 09:18:05;;;;;;;0.00;0.00;;;;;;;19.16;86.65;101128.16;5052861;28;20480;-51
2023/08/05 09:20:35;;;;;;;0.00;0.00;;;;;;;19.15;87.48;101126.44;5053443;28;20112;-50
2023/08/05 09:23:06;;;;;;;0.00;0.00;;;;;;;19.14;82.87;101116.84;5053368;28;20113;-48
2023/08/05 09:25:33;;;;;;;0.00;0.00;;;;;;;19.19;84.53;101112.50;5052720;28;20039;-48
2023/08/05 09:28:04;;;;;;;0.00;0.00;;;;;;;19.26;83.26;101106.38;5053609;28;20024;-50
2023/08/05 09:30:29;;;;;;;0.00;0.00;;;;;;;19.40;84.83;101098.50;5053122;28;20060;-49
2023/08/05 09:32:54;;;;;;;0.00;0.00;;;;;;;19.31;81.83;101098.53;5052710;28;20049;-50
2023/08/05 09:35:20;;;;;;;0.10;0.10;;;;;;;19.18;82.57;101089.84;5053252;28;20017;-47
2023/08/05 09:37:48;;;;;;;0.00;0.00;;;;;;;19.30;85.08;101074.16;5053075;28;20138;-51
2023/08/05 09:40:22;;;;;;;0.00;0.00;;;;;;;19.39;84.68;101081.97;5052774;28;20021;-48
2023/08/05 09:42:48;;;;;;;0.00;0.00;;;;;;;19.58;83.21;101081.88;5053364;28;20041;-51
2023/08/05 09:45:16;;;;;;;0.00;0.00;;;;;;;19.55;80.24;101079.28;5052567;28;20107;-49
2023/08/05 09:47:42;;;;;;;0.00;0.00;;;;;;;19.30;80.81;101078.50;5052652;28;20017;-48
2023/08/05 09:50:11;;;;;;;0.10;0.10;;;;;;;18.94;82.84;101080.31;5052961;28;20033;-48
2023/08/05 09:52:39;;;;;;;0.00;0.00;;;;;;;18.61;85.46;101076.84;5052176;28;20496;-50
2023/08/05 09:55:16;;;;;;;0.00;0.00;;;;;;;18.50;88.76;101069.88;5053099;28;20098;-51
2023/08/05 09:57:42;;;;;;;0.00;0.00;;;;;;;18.46;90.85;101062.03;5052924;28;20075;-46
2023/08/05 10:00:13;;;;;;;0.00;0.00;;;;;;;18.46;88.55;101052.44;5052210;28;20078;-49
2023/08/05 10:02:41;;;;;;;0.10;0.10;;;;;;;18.56;89.80;101055.94;5052815;28;20025;-49
2023/08/05 10:05:09;;;;;;;0.00;0.00;;;;;;;18.75;90.55;101057.66;5053161;28;20040;-50
2023/08/05 10:07:36;;;;;;;0.00;0.00;;;;;;;18.78;88.16;101055.94;5051940;28;20029;-48
2023/08/05 10:10:03;;;;;;;;;;;;;;;19.05;89.59;101055.03;5053099;28;20028;-50
2023/08/05 10:12:37;;;;;;;0.00;0.00;;;;;;;18.82;89.20;101047.22;5052488;28;19924;-46
2023/08/05 10:15:04;;;;;;;0.00;0.00;;;;;;;18.80;87.90;101044.59;5051870;28;20267;-46
2023/08/05 10:17:30;;;;;;;0.10;0.10;;;;;;;18.84;88.86;101040.25;5052585;28;20047;-47
2023/08/05 10:19:55;;;;;;;0.00;0.00;;;;;;;18.79;87.89;101039.41;5052827;28;20357;-46
2023/08/05 10:22:22;;;;;;;0.00;0.00;;;;;;;18.58;88.41;101033.31;5051877;28;20060;-49
2023/08/05 10:24:58;;;;;;;0.00;0.00;;;;;;;18.65;90.58;101040.25;5052747;28;20033;-48
2023/08/05 10:27:34;;;;;;;0.00;0.00;;;;;;;18.52;89.27;101026.34;5051847;28;20713;-50
2023/08/05 10:30:12;;;;;;;0.00;0.00;;;;;;;18.45;91.21;101026.34;5052361;28;20498;-51
2023/08/05 10:32:50;;;;;;;;;;;;;;;18.52;90.22;101023.75;5052914;28;20033;-47
2023/08/05 10:35:30;;;;;;;0.00;0.00;;;;;;;17.96;94.29;101025.47;5052014;28;19920;-49
2023/08/05 10:38:07;;;;;;;0.10;0.10;;;;;;;17.78;98.35;101027.09;5052384;28;20456;-50
2023/08/05 10:40:40;;;;;;;0.10;0.10;;;;;;;17.64;97.95;101028.81;5052168;28;20057;-46
2023/08/05 10:43:09;;;;;;;0.03;0.03;;;;;;;17.61;99.41;101014.03;5051536;28;20409;-47
2023/08/05 10:45:35;;;;;;;0.00;0.00;;;;;;;17.73;98.73;101023.63;5052030;28;20060;-48
2023/08/05 10:48:06;;;;;;;0.00;0.00;;;;;;;17.83;98.36;101026.25;5052315;28;20036;-50
2023/08/05 10:50:36;;;;;;;0.00;0.00;;;;;;;17.93;98.58;101018.50;5051317;28;20025;-50
2023/08/05 10:53:09;;;;;;;0.10;0.10;;;;;;;18.16;98.56;101020.25;5052627;28;20032;-49
2023/08/05 10:55:48;;;;;;;0.10;0.10;;;;;;;18.35;96.44;101018.53;5051622;28;20458;-50
2023/08/05 10:58:15;;;;;;;0.00;0.00;;;;;;;18.33;94.30;101015.03;5052051;28;20132;-50
2023/08/05 11:00:42;;;;;;;0.00;0.00;;;;;;;18.43;92.89;101014.16;5052694;28;20075;-46
2023/08/05 11:03:26;;;;;;;0.10;0.10;;;;;;;18.40;92.45;101014.19;5055773;28;20033;-48
2023/08/05 11:05:54;;;;;;;0.00;0.00;;;;;;;18.37;93.94;101005.47;5056298;28;20275;-46
2023/08/05 11:08:21;;;;;;;0.00;0.00;;;;;;;18.51;90.31;100997.66;5056081;28;20167;-51
2023/08/05 11:10:48;;;;;;;0.10;0.10;;;;;;;18.53;89.13;101004.59;5055098;28;20031;-49
2023/08/05 11:13:15;;;;;;;0.00;0.00;;;;;;;18.62;86.13;101001.13;5055940;28;20023;-46
2023/08/05 11:15:40;;;;;;;0.10;0.10;;;;;;;18.90;86.44;100996.75;5055918;28;20025;-48